sensor_id;sensor_type;location;lat;lon;timestamp;pressure;altitude;pressure_sealevel;temperature;humidity
73651;BME280;61944;52.538;6.108;2022-11-04T06:06:15;100294.97;;;9.64;100.00
73651;BME280;61944;52.538;6.108;2022-11-04T06:08:40;100297.34;;;9.65;100.00
73651;BME280;61944;52.538;6.108;2022-11-04T06:11:06;100294.78;;;9.46;100.00
73651;BME280;61944;52.538;6.108;2022-11-04T06:13:31;100304.38;;;9.48;100.00
73651;BME280;61944;52.538;6.108;2022-11-04T06:15:57;100312.56;;;9.68;100.00
73651;BME280;61944;52.538;6.108;2022-11-04T06:18:22;100319.56;;;9.47;100.00
73651;BME280;61944;52.538;6.108;2022-11-04T06:20:47;100320.25;;;9.37;100.00
73651;BME280;61944;52.538;6.108;2022-11-04T06:23:13;100321.03;;;9.34;100.00
73651;BME280;61944;52.538;6.108;2022-11-04T06:25:38;100325.97;;;9.51;100.00
73651;BME280;61944;52.538;6.108;2022-11-04T06:28:03;100332.38;;;9.52;100.00
73651;BME280;61944;52.538;6.108;2022-11-04T06:30:29;100335.94;;;9.52;100.00
73651;BME280;61944;52.538;6.108;2022-11-04T06:32:54;100329.88;;;9.43;100.00
73651;BME280;61944;52.538;6.108;2022-11-04T06:35:19;100326.97;;;9.70;100.00
73651;BME280;61944;52.538;6.108;2022-11-04T06:37:45;100325.94;;;9.48;100.00
73651;BME280;61944;52.538;6.108;2022-11-04T06:40:10;100333.66;;;9.62;100.00
73651;BME280;61944;52.538;6.108;2022-11-04T06:42:36;100330.47;;;9.63;100.00
73651;BME280;61944;52.538;6.108;2022-11-04T06:45:01;100335.44;;;9.84;100.00
73651;BME280;61944;52.538;6.108;2022-11-04T06:47:26;100333.56;;;9.95;100.00
73651;BME280;61944;52.538;6.108;2022-11-04T06:49:52;100339.56;;;9.97;100.00
73651;BME280;61944;52.538;6.108;2022-11-04T06:52:17;100353.88;;;9.92;100.00
73651;BME280;61944;52.538;6.108;2022-11-04T06:54:42;100348.78;;;10.02;100.00
73651;BME280;61944;52.538;6.108;2022-11-04T06:57:09;100343.97;;;9.98;100.00
73651;BME280;61944;52.538;6.108;2022-11-04T06:59:36;100360.81;;;10.09;100.00
73651;BME280;61944;52.538;6.108;2022-11-04T07:02:01;100354.69;;;9.89;100.00
73651;BME280;61944;52.538;6.108;2022-11-04T07:04:26;100366.63;;;9.86;100.00
73651;BME280;61944;52.538;6.108;2022-11-04T07:06:52;100364.50;;;9.76;100.00
73651;BME280;61944;52.538;6.108;2022-11-04T07:09:17;100368.31;;;9.53;100.00
73651;BME280;61944;52.538;6.108;2022-11-04T07:11:43;100377.31;;;9.77;100.00
73651;BME280;61944;52.538;6.108;2022-11-04T07:14:09;100384.06;;;10.17;100.00
73651;BME280;61944;52.538;6.108;2022-11-04T07:16:35;100397.81;;;10.36;100.00
73651;BME280;61944;52.538;6.108;2022-11-04T07:19:01;100399.38;;;10.30;100.00
73651;BME280;61944;52.538;6.108;2022-11-04T07:21:26;100409.69;;;10.26;100.00
73651;BME280;61944;52.538;6.108;2022-11-04T07:23:51;100409.22;;;10.17;100.00
73651;BME280;61944;52.538;6.108;2022-11-04T07:26:17;100410.06;;;10.21;100.00
73651;BME280;61944;52.538;6.108;2022-11-04T07:28:42;100414.63;;;9.95;100.00
73651;BME280;61944;52.538;6.108;2022-11-04T07:31:10;100422.38;;;10.13;100.00
73651;BME280;61944;52.538;6.108;2022-11-04T07:33:35;100420.84;;;10.19;100.00
73651;BME280;61944;52.538;6.108;2022-11-04T07:36:06;100427.97;;;10.13;100.00
73651;BME280;61944;52.538;6.108;2022-11-04T07:38:32;100424.47;;;9.82;100.00
73651;BME280;61944;52.538;6.108;2022-11-04T07:40:58;100427.47;;;10.00;100.00
73651;BME280;61944;52.538;6.108;2022-11-04T07:43:23;100431.00;;;9.93;100.00
73651;BME280;61944;52.538;6.108;2022-11-04T07:46:11;100438.69;;;10.04;100.00
73651;BME280;61944;52.538;6.108;2022-11-04T07:48:37;100439.94;;;10.10;100.00
73651;BME280;61944;52.538;6.108;2022-11-04T07:51:04;100436.75;;;10.11;100.00
73651;BME280;61944;52.538;6.108;2022-11-04T07:53:34;100440.00;;;10.17;100.00
73651;BME280;61944;52.538;6.108;2022-11-04T07:56:05;100438.81;;;9.77;100.00
73651;BME280;61944;52.538;6.108;2022-11-04T07:58:31;100444.69;;;10.06;100.00
73651;BME280;61944;52.538;6.108;2022-11-04T08:01:06;100447.72;;;9.90;100.00
73651;BME280;61944;52.538;6.108;2022-11-04T08:03:33;100442.34;;;10.11;100.00
73651;BME280;61944;52.538;6.108;2022-11-04T08:06:01;100457.78;;;9.98;100.00
73651;BME280;61944;52.538;6.108;2022-11-04T08:08:27;100450.06;;;9.84;100.00
73651;BME280;61944;52.538;6.108;2022-11-04T08:10:59;100453.41;;;10.01;100.00
73651;BME280;61944;52.538;6.108;2022-11-04T08:13:30;100456.69;;;10.06;100.00
73651;BME280;61944;52.538;6.108;2022-11-04T08:15:56;100458.94;;;9.93;100.00
73651;BME280;61944;52.538;6.108;2022-11-04T08:18:24;100457.47;;;10.07;100.00
73651;BME280;61944;52.538;6.108;2022-11-04T08:20:51;100462.53;;;10.31;100.00
73651;BME280;61944;52.538;6.108;2022-11-04T08:23:17;100474.25;;;10.07;100.00
73651;BME280;61944;52.538;6.108;2022-11-04T08:25:43;100481.06;;;10.09;100.00
73651;BME280;61944;52.538;6.108;2022-11-04T08:28:09;100472.72;;;10.13;100.00
73651;BME280;61944;52.538;6.108;2022-11-04T08:30:41;100477.66;;;10.27;100.00
73651;BME280;61944;52.538;6.108;2022-11-04T08:33:06;100482.78;;;10.21;100.00
73651;BME280;61944;52.538;6.108;2022-11-04T08:35:34;100483.47;;;9.70;100.00
73651;BME280;61944;52.538;6.108;2022-11-04T08:37:59;100475.63;;;9.49;100.00
73651;BME280;61944;52.538;6.108;2022-11-04T08:40:24;100491.00;;;9.66;100.00
73651;BME280;61944;52.538;6.108;2022-11-04T08:42:50;100484.13;;;9.60;100.00
73651;BME280;61944;52.538;6.108;2022-11-04T08:45:15;100483.38;;;9.63;100.00
73651;BME280;61944;52.538;6.108;2022-11-04T08:47:41;100481.47;;;10.08;100.00
73651;BME280;61944;52.538;6.108;2022-11-04T08:50:06;100491.19;;;10.21;100.00
73651;BME280;61944;52.538;6.108;2022-11-04T08:52:32;100498.84;;;10.28;100.00
73651;BME280;61944;52.538;6.108;2022-11-04T08:54:57;100504.78;;;10.23;100.00
73651;BME280;61944;52.538;6.108;2022-11-04T08:57:22;100508.09;;;10.32;100.00
73651;BME280;61944;52.538;6.108;2022-11-04T08:59:48;100512.09;;;10.34;100.00
73651;BME280;61944;52.538;6.108;2022-11-04T09:02:14;100510.19;;;10.05;100.00
73651;BME280;61944;52.538;6.108;2022-11-04T09:04:40;100514.44;;;10.29;100.00
73651;BME280;61944;52.538;6.108;2022-11-04T09:07:06;100516.06;;;10.30;100.00
73651;BME280;61944;52.538;6.108;2022-11-04T09:09:32;100510.97;;;10.02;100.00
73651;BME280;61944;52.538;6.108;2022-11-04T09:11:57;100518.34;;;10.21;100.00
73651;BME280;61944;52.538;6.108;2022-11-04T09:14:23;100520.41;;;10.27;100.00
73651;BME280;61944;52.538;6.108;2022-11-04T09:16:48;100526.81;;;9.90;100.00
73651;BME280;61944;52.538;6.108;2022-11-04T09:19:14;100524.41;;;9.89;100.00
73651;BME280;61944;52.538;6.108;2022-11-04T09:21:39;100529.78;;;9.71;100.00
73651;BME280;61944;52.538;6.108;2022-11-04T09:24:05;100531.91;;;9.81;100.00
73651;BME280;61944;52.538;6.108;2022-11-04T09:26:32;100538.84;;;9.94;100.00
73651;BME280;61944;52.538;6.108;2022-11-04T09:28:58;100535.94;;;10.21;100.00
73651;BME280;61944;52.538;6.108;2022-11-04T09:31:26;100539.66;;;10.32;100.00
73651;BME280;61944;52.538;6.108;2022-11-04T09:33:53;100537.75;;;10.40;100.00
73651;BME280;61944;52.538;6.108;2022-11-04T09:36:18;100540.09;;;10.34;100.00
73651;BME280;61944;52.538;6.108;2022-11-04T09:38:44;100540.69;;;10.17;100.00
73651;BME280;61944;52.538;6.108;2022-11-04T09:43:58;100549.22;;;9.94;100.00
73651;BME280;61944;52.538;6.108;2022-11-04T09:46:28;100556.25;;;10.18;100.00
73651;BME280;61944;52.538;6.108;2022-11-04T09:48:56;100567.13;;;10.23;100.00
73651;BME280;61944;52.538;6.108;2022-11-04T09:51:24;100573.88;;;10.22;100.00
73651;BME280;61944;52.538;6.108;2022-11-04T09:54:03;100569.69;;;10.35;100.00
73651;BME280;61944;52.538;6.108;2022-11-04T09:56:38;100576.81;;;10.29;100.00
73651;BME280;61944;52.538;6.108;2022-11-04T09:59:14;100585.47;;;10.21;100.00
73651;BME280;61944;52.538;6.108;2022-11-04T10:15:38;100583.66;;;10.02;100.00
73651;BME280;61944;52.538;6.108;2022-11-04T10:21:01;100594.31;;;10.26;100.00
73651;BME280;61944;52.538;6.108;2022-11-04T10:26:28;100598.31;;;10.25;100.00
73651;BME280;61944;52.538;6.108;2022-11-04T10:29:02;100607.66;;;10.36;100.00
73651;BME280;61944;52.538;6.108;2022-11-04T10:31:28;100605.69;;;10.41;100.00
73651;BME280;61944;52.538;6.108;2022-11-04T10:33:58;100605.75;;;10.44;100.00
73651;BME280;61944;52.538;6.108;2022-11-04T10:36:28;100609.59;;;10.32;100.00
73651;BME280;61944;52.538;6.108;2022-11-04T10:38:55;100609.59;;;10.32;100.00
73651;BME280;61944;52.538;6.108;2022-11-04T10:52:11;100638.66;;;10.58;100.00
73651;BME280;61944;52.538;6.108;2022-11-04T10:54:42;100645.53;;;10.30;100.00
73651;BME280;61944;52.538;6.108;2022-11-04T10:57:10;100649.00;;;10.54;100.00
73651;BME280;61944;52.538;6.108;2022-11-04T10:59:59;100653.47;;;10.58;100.00
73651;BME280;61944;52.538;6.108;2022-11-04T11:05:23;100645.72;;;10.45;100.00
73651;BME280;61944;52.538;6.108;2022-11-04T11:07:55;100643.28;;;10.40;100.00
73651;BME280;61944;52.538;6.108;2022-11-04T11:10:30;100644.13;;;10.47;100.00
73651;BME280;61944;52.538;6.108;2022-11-04T11:13:06;100639.38;;;10.51;100.00
73651;BME280;61944;52.538;6.108;2022-11-04T11:15:47;100644.66;;;10.60;100.00
73651;BME280;61944;52.538;6.108;2022-11-04T11:18:16;100656.28;;;10.62;100.00
73651;BME280;61944;52.538;6.108;2022-11-04T11:20:47;100658.75;;;10.67;100.00
73651;BME280;61944;52.538;6.108;2022-11-04T11:25:58;100667.78;;;10.53;100.00
73651;BME280;61944;52.538;6.108;2022-11-04T11:28:24;100678.66;;;10.58;100.00
73651;BME280;61944;52.538;6.108;2022-11-04T11:31:01;100677.03;;;10.95;100.00
73651;BME280;61944;52.538;6.108;2022-11-04T11:33:37;100680.56;;;10.88;100.00
73651;BME280;61944;52.538;6.108;2022-11-04T11:36:22;100686.81;;;10.74;100.00
73651;BME280;61944;52.538;6.108;2022-11-04T11:39:05;100672.75;;;10.67;100.00
73651;BME280;61944;52.538;6.108;2022-11-04T11:41:57;100670.84;;;11.19;100.00
73651;BME280;61944;52.538;6.108;2022-11-04T11:44:38;100673.59;;;11.12;100.00
73651;BME280;61944;52.538;6.108;2022-11-04T11:47:35;100671.91;;;11.04;100.00
73651;BME280;61944;52.538;6.108;2022-11-04T11:52:31;100681.03;;;10.97;100.00
73651;BME280;61944;52.538;6.108;2022-11-04T11:57:46;100705.59;;;11.11;100.00
73651;BME280;61944;52.538;6.108;2022-11-04T12:00:16;100708.81;;;11.13;100.00
73651;BME280;61944;52.538;6.108;2022-11-04T12:05:20;100710.63;;;10.95;100.00
73651;BME280;61944;52.538;6.108;2022-11-04T12:10:27;100703.88;;;10.99;100.00
73651;BME280;61944;52.538;6.108;2022-11-04T12:20:52;100721.56;;;11.07;100.00
73651;BME280;61944;52.538;6.108;2022-11-04T12:23:29;100715.69;;;11.23;100.00
73651;BME280;61944;52.538;6.108;2022-11-04T12:29:14;100715.31;;;11.25;100.00
73651;BME280;61944;52.538;6.108;2022-11-04T12:32:08;100708.91;;;11.24;100.00
73651;BME280;61944;52.538;6.108;2022-11-04T12:37:30;100713.72;;;11.24;100.00
73651;BME280;61944;52.538;6.108;2022-11-04T12:40:10;100724.97;;;11.31;100.00
73651;BME280;61944;52.538;6.108;2022-11-04T12:42:57;100728.19;;;11.33;100.00
73651;BME280;61944;52.538;6.108;2022-11-04T12:45:55;100737.41;;;11.33;100.00
73651;BME280;61944;52.538;6.108;2022-11-04T12:51:14;100727.13;;;11.48;100.00
73651;BME280;61944;52.538;6.108;2022-11-04T12:54:07;100735.59;;;11.55;100.00
73651;BME280;61944;52.538;6.108;2022-11-04T12:56:39;100733.97;;;11.54;100.00
73651;BME280;61944;52.538;6.108;2022-11-04T13:04:55;100738.78;;;11.54;100.00
73651;BME280;61944;52.538;6.108;2022-11-04T13:07:30;100744.44;;;11.57;100.00
73651;BME280;61944;52.538;6.108;2022-11-04T13:10:16;100739.28;;;11.67;100.00
73651;BME280;61944;52.538;6.108;2022-11-04T13:12:44;100747.75;;;11.70;100.00
73651;BME280;61944;52.538;6.108;2022-11-04T13:15:18;100746.91;;;11.66;100.00
73651;BME280;61944;52.538;6.108;2022-11-04T13:17:49;100742.13;;;11.74;100.00
73651;BME280;61944;52.538;6.108;2022-11-04T13:23:07;100737.31;;;11.71;100.00
73651;BME280;61944;52.538;6.108;2022-11-04T13:25:42;100742.13;;;11.74;100.00
73651;BME280;61944;52.538;6.108;2022-11-04T13:28:13;100750.91;;;11.69;98.89
73651;BME280;61944;52.538;6.108;2022-11-04T13:33:53;100766.94;;;11.68;99.66
73651;BME280;61944;52.538;6.108;2022-11-04T13:36:51;100770.13;;;11.67;98.88
73651;BME280;61944;52.538;6.108;2022-11-04T13:39:22;100770.13;;;11.67;97.72
73651;BME280;61944;52.538;6.108;2022-11-04T13:44:42;100766.06;;;11.60;100.00
73651;BME280;61944;52.538;6.108;2022-11-04T13:47:21;100767.28;;;11.59;100.00
73651;BME280;61944;52.538;6.108;2022-11-04T13:49:53;100765.28;;;11.60;99.75
73651;BME280;61944;52.538;6.108;2022-11-04T13:52:32;100777.25;;;11.57;100.00
73651;BME280;61944;52.538;6.108;2022-11-04T13:55:03;100779.31;;;11.64;100.00
73651;BME280;61944;52.538;6.108;2022-11-04T13:57:48;100786.06;;;11.59;99.49
73651;BME280;61944;52.538;6.108;2022-11-04T14:02:57;100784.19;;;11.70;100.00
73651;BME280;61944;52.538;6.108;2022-11-04T14:18:50;100811.72;;;11.57;100.00
73651;BME280;61944;52.538;6.108;2022-11-04T14:21:26;100821.69;;;11.55;100.00
73651;BME280;61944;52.538;6.108;2022-11-04T14:23:57;100814.00;;;11.48;99.18
73651;BME280;61944;52.538;6.108;2022-11-04T14:26:43;100820.03;;;11.50;98.37
73651;BME280;61944;52.538;6.108;2022-11-04T14:29:21;100822.84;;;11.50;99.55
73651;BME280;61944;52.538;6.108;2022-11-04T14:31:52;100827.59;;;11.46;97.79
73651;BME280;61944;52.538;6.108;2022-11-04T14:34:27;100830.44;;;11.50;98.28
73651;BME280;61944;52.538;6.108;2022-11-04T14:36:58;100841.88;;;11.34;95.93
73651;BME280;61944;52.538;6.108;2022-11-04T14:39:29;100842.81;;;11.45;98.89
73651;BME280;61944;52.538;6.108;2022-11-04T14:42:00;100847.59;;;11.45;98.03
73651;BME280;61944;52.538;6.108;2022-11-04T14:49:52;100855.69;;;11.50;99.45
73651;BME280;61944;52.538;6.108;2022-11-04T14:52:30;100858.00;;;11.41;97.31
73651;BME280;61944;52.538;6.108;2022-11-04T14:55:03;100858.94;;;11.55;98.73
73651;BME280;61944;52.538;6.108;2022-11-04T14:57:36;100865.25;;;11.45;98.99
73651;BME280;61944;52.538;6.108;2022-11-04T15:00:34;100869.31;;;11.51;99.41
73651;BME280;61944;52.538;6.108;2022-11-04T15:03:17;100870.16;;;11.55;100.00
73651;BME280;61944;52.538;6.108;2022-11-04T15:05:53;100874.94;;;11.51;98.37
73651;BME280;61944;52.538;6.108;2022-11-04T15:11:16;100896.44;;;11.44;98.04
73651;BME280;61944;52.538;6.108;2022-11-04T15:14:21;100893.69;;;11.47;99.79
73651;BME280;61944;52.538;6.108;2022-11-04T15:16:51;100895.59;;;11.39;100.00
73651;BME280;61944;52.538;6.108;2022-11-04T15:19:28;100900.38;;;11.35;100.00
73651;BME280;61944;52.538;6.108;2022-11-04T15:21:54;100901.88;;;11.29;99.37
73651;BME280;61944;52.538;6.108;2022-11-04T15:24:20;100909.06;;;11.27;99.98
73651;BME280;61944;52.538;6.108;2022-11-04T15:26:53;100908.78;;;11.35;99.81
73651;BME280;61944;52.538;6.108;2022-11-04T15:29:21;100913.47;;;11.28;99.36
73651;BME280;61944;52.538;6.108;2022-11-04T15:31:54;100911.44;;;11.25;99.67
73651;BME280;61944;52.538;6.108;2022-11-04T15:34:20;100913.47;;;11.28;100.00
73651;BME280;61944;52.538;6.108;2022-11-04T15:36:46;100917.56;;;11.34;99.72
73651;BME280;61944;52.538;6.108;2022-11-04T15:39:20;100923.09;;;11.27;99.80
73651;BME280;61944;52.538;6.108;2022-11-04T15:41:47;100933.94;;;11.32;100.00
73651;BME280;61944;52.538;6.108;2022-11-04T15:44:34;100929.59;;;11.34;100.00
73651;BME280;61944;52.538;6.108;2022-11-04T15:47:22;100931.63;;;11.37;100.00
73651;BME280;61944;52.538;6.108;2022-11-04T15:49:50;100940.41;;;11.36;100.00
73651;BME280;61944;52.538;6.108;2022-11-04T15:54:46;100947.38;;;11.15;100.00
73651;BME280;61944;52.538;6.108;2022-11-04T15:57:17;100943.03;;;11.22;100.00
73651;BME280;61944;52.538;6.108;2022-11-04T16:02:43;100938.66;;;11.24;100.00
73651;BME280;61944;52.538;6.108;2022-11-04T16:07:39;100944.13;;;11.13;100.00
73651;BME280;61944;52.538;6.108;2022-11-04T16:13:36;100937.53;;;10.98;100.00
73651;BME280;61944;52.538;6.108;2022-11-04T16:15:48;100948.81;;;11.06;100.00
73651;BME280;61944;52.538;6.108;2022-11-04T16:20:46;100955.22;;;11.06;100.00
73651;BME280;61944;52.538;6.108;2022-11-04T16:23:16;100949.47;;;10.95;100.00
73651;BME280;61944;52.538;6.108;2022-11-04T16:25:42;100959.22;;;11.05;100.00
73651;BME280;61944;52.538;6.108;2022-11-04T16:28:18;100955.16;;;10.99;100.00
73651;BME280;61944;52.538;6.108;2022-11-04T16:30:58;100968.66;;;10.93;100.00
73651;BME280;61944;52.538;6.108;2022-11-04T16:33:24;100972.16;;;10.87;100.00
73651;BME280;61944;52.538;6.108;2022-11-04T16:35:49;100972.38;;;11.01;100.00
73651;BME280;61944;52.538;6.108;2022-11-04T16:38:15;100979.22;;;11.04;100.00
73651;BME280;61944;52.538;6.108;2022-11-04T16:40:42;100985.94;;;10.99;100.00
73651;BME280;61944;52.538;6.108;2022-11-04T16:43:09;100996.66;;;10.93;100.00
73651;BME280;61944;52.538;6.108;2022-11-04T16:45:35;100998.56;;;10.86;100.00
73651;BME280;61944;52.538;6.108;2022-11-04T16:48:02;101006.19;;;10.89;100.00
73651;BME280;61944;52.538;6.108;2022-11-04T16:50:28;101006.97;;;10.86;100.00
73651;BME280;61944;52.538;6.108;2022-11-04T16:52:56;101011.47;;;10.67;100.00
73651;BME280;61944;52.538;6.108;2022-11-04T16:55:22;101009.09;;;10.69;100.00
73651;BME280;61944;52.538;6.108;2022-11-04T16:57:55;101013.66;;;10.54;100.00
73651;BME280;61944;52.538;6.108;2022-11-04T17:00:23;101016.56;;;10.62;100.00
73651;BME280;61944;52.538;6.108;2022-11-04T17:02:49;101023.84;;;10.66;100.00
73651;BME280;61944;52.538;6.108;2022-11-04T17:05:16;101031.00;;;10.64;100.00
73651;BME280;61944;52.538;6.108;2022-11-04T17:07:42;101033.53;;;10.72;100.00
73651;BME280;61944;52.538;6.108;2022-11-04T17:10:18;101028.28;;;10.67;100.00
73651;BME280;61944;52.538;6.108;2022-11-04T17:12:44;101035.47;;;10.68;100.00
73651;BME280;61944;52.538;6.108;2022-11-04T17:15:10;101034.44;;;10.53;100.00
73651;BME280;61944;52.538;6.108;2022-11-04T17:17:36;101036.41;;;10.53;100.00
73651;BME280;61944;52.538;6.108;2022-11-04T17:20:02;101038.53;;;10.60;100.00
73651;BME280;61944;52.538;6.108;2022-11-04T17:22:30;101038.66;;;10.67;100.00
73651;BME280;61944;52.538;6.108;2022-11-04T17:24:56;101043.84;;;10.65;100.00
73651;BME280;61944;52.538;6.108;2022-11-04T17:27:21;101054.72;;;10.47;100.00
73651;BME280;61944;52.538;6.108;2022-11-04T17:29:47;101051.91;;;10.47;100.00
73651;BME280;61944;52.538;6.108;2022-11-04T17:32:12;101053.41;;;10.41;100.00
73651;BME280;61944;52.538;6.108;2022-11-04T17:34:37;101058.75;;;10.49;100.00
73651;BME280;61944;52.538;6.108;2022-11-04T17:37:04;101058.94;;;10.60;100.00
73651;BME280;61944;52.538;6.108;2022-11-04T17:39:30;101063.34;;;10.61;100.00
73651;BME280;61944;52.538;6.108;2022-11-04T17:41:56;101066.03;;;10.31;100.00
73651;BME280;61944;52.538;6.108;2022-11-04T17:44:40;101072.69;;;10.46;100.00
73651;BME280;61944;52.538;6.108;2022-11-04T17:47:05;101081.38;;;10.41;100.00
73651;BME280;61944;52.538;6.108;2022-11-04T17:49:34;101075.97;;;10.51;100.00
73651;BME280;61944;52.538;6.108;2022-11-04T17:52:00;101073.59;;;10.53;100.00
73651;BME280;61944;52.538;6.108;2022-11-04T17:54:27;101078.22;;;10.42;100.00
73651;BME280;61944;52.538;6.108;2022-11-04T17:56:53;101071.94;;;10.49;100.00
73651;BME280;61944;52.538;6.108;2022-11-04T17:59:19;101083.75;;;10.38;100.00
73651;BME280;61944;52.538;6.108;2022-11-04T18:01:45;101083.06;;;10.45;100.00
73651;BME280;61944;52.538;6.108;2022-11-04T18:04:14;101087.50;;;10.46;100.00
73651;BME280;61944;52.538;6.108;2022-11-04T18:06:39;101087.84;;;10.45;100.00
73651;BME280;61944;52.538;6.108;2022-11-04T18:09:05;101086.69;;;10.46;100.00
73651;BME280;61944;52.538;6.108;2022-11-04T18:11:30;101099.47;;;10.47;100.00
73651;BME280;61944;52.538;6.108;2022-11-04T18:14:16;101083.00;;;10.42;100.00
73651;BME280;61944;52.538;6.108;2022-11-04T18:16:44;101091.84;;;10.44;100.00
73651;BME280;61944;52.538;6.108;2022-11-04T18:19:10;101093.38;;;10.41;100.00
73651;BME280;61944;52.538;6.108;2022-11-04T18:21:36;101096.13;;;10.37;100.00
73651;BME280;61944;52.538;6.108;2022-11-04T18:24:01;101091.34;;;10.38;100.00
73651;BME280;61944;52.538;6.108;2022-11-04T18:26:28;101096.13;;;10.37;100.00
73651;BME280;61944;52.538;6.108;2022-11-04T18:28:53;101109.97;;;10.30;100.00
73651;BME280;61944;52.538;6.108;2022-11-04T18:31:39;101111.66;;;10.35;100.00
73651;BME280;61944;52.538;6.108;2022-11-04T18:34:10;101113.19;;;10.32;100.00
73651;BME280;61944;52.538;6.108;2022-11-04T18:36:36;101107.00;;;10.23;100.00
73651;BME280;61944;52.538;6.108;2022-11-04T18:39:06;101111.16;;;10.29;100.00
73651;BME280;61944;52.538;6.108;2022-11-04T18:41:34;101105.81;;;10.24;100.00
73651;BME280;61944;52.538;6.108;2022-11-04T18:43:59;101101.69;;;10.18;100.00
73651;BME280;61944;52.538;6.108;2022-11-04T18:46:25;101107.38;;;10.22;100.00
73651;BME280;61944;52.538;6.108;2022-11-04T18:48:51;101111.97;;;10.10;100.00
73651;BME280;61944;52.538;6.108;2022-11-04T18:51:20;101108.94;;;10.19;100.00
73651;BME280;61944;52.538;6.108;2022-11-04T18:53:46;101124.09;;;10.18;100.00
73651;BME280;61944;52.538;6.108;2022-11-04T18:56:13;101129.22;;;10.16;100.00
73651;BME280;61944;52.538;6.108;2022-11-04T18:58:40;101122.63;;;9.85;100.00
73651;BME280;61944;52.538;6.108;2022-11-04T19:01:12;101118.22;;;10.04;100.00
73651;BME280;61944;52.538;6.108;2022-11-04T19:03:40;101121.53;;;9.90;100.00
73651;BME280;61944;52.538;6.108;2022-11-04T19:06:11;101130.22;;;10.04;100.00
73651;BME280;61944;52.538;6.108;2022-11-04T19:08:37;101115.69;;;9.98;100.00
73651;BME280;61944;52.538;6.108;2022-11-04T19:11:23;101128.28;;;10.08;100.00
73651;BME280;61944;52.538;6.108;2022-11-04T19:13:53;101128.66;;;10.07;100.00
73651;BME280;61944;52.538;6.108;2022-11-04T19:16:19;101122.94;;;10.00;100.00
73651;BME280;61944;52.538;6.108;2022-11-04T19:18:44;101131.91;;;9.70;100.00
73651;BME280;61944;52.538;6.108;2022-11-04T19:21:14;101137.75;;;9.84;100.00
73651;BME280;61944;52.538;6.108;2022-11-04T19:23:40;101135.50;;;9.90;100.00
73651;BME280;61944;52.538;6.108;2022-11-04T19:26:08;101142.06;;;9.97;100.00
73651;BME280;61944;52.538;6.108;2022-11-04T19:28:38;101145.22;;;9.96;100.00
73651;BME280;61944;52.538;6.108;2022-11-04T19:31:05;101150.44;;;9.97;100.00
73651;BME280;61944;52.538;6.108;2022-11-04T19:33:31;101150.81;;;9.96;100.00
73651;BME280;61944;52.538;6.108;2022-11-04T19:35:57;101153.94;;;9.75;100.00
73651;BME280;61944;52.538;6.108;2022-11-04T19:38:24;101157.06;;;9.89;100.00
73651;BME280;61944;52.538;6.108;2022-11-04T19:40:50;101156.19;;;9.85;100.00
73651;BME280;61944;52.538;6.108;2022-11-04T19:43:16;101163.38;;;9.86;100.00
73651;BME280;61944;52.538;6.108;2022-11-04T19:45:43;101163.47;;;9.90;100.00
73651;BME280;61944;52.538;6.108;2022-11-04T19:48:10;101167.97;;;9.59;100.00
73651;BME280;61944;52.538;6.108;2022-11-04T19:50:40;101165.56;;;9.57;100.00
73651;BME280;61944;52.538;6.108;2022-11-04T19:53:06;101176.69;;;9.73;100.00
73651;BME280;61944;52.538;6.108;2022-11-04T19:55:32;101175.88;;;9.73;100.00
73651;BME280;61944;52.538;6.108;2022-11-04T19:57:57;101171.31;;;9.84;100.00
73651;BME280;61944;52.538;6.108;2022-11-04T20:00:23;101183.38;;;9.69;100.00
73651;BME280;61944;52.538;6.108;2022-11-04T20:02:49;101178.53;;;9.50;100.00
73651;BME280;61944;52.538;6.108;2022-11-04T20:05:15;101186.91;;;9.50;100.00
73651;BME280;61944;52.538;6.108;2022-11-04T20:07:40;101195.56;;;9.61;100.00
73651;BME280;61944;52.538;6.108;2022-11-04T20:10:06;101185.81;;;9.54;100.00
73651;BME280;61944;52.538;6.108;2022-11-04T20:12:34;101200.25;;;9.56;100.00
73651;BME280;61944;52.538;6.108;2022-11-04T20:15:18;101208.28;;;9.58;100.00
73651;BME280;61944;52.538;6.108;2022-11-04T20:17:43;101206.38;;;9.46;100.00
73651;BME280;61944;52.538;6.108;2022-11-04T20:20:09;101214.88;;;9.34;100.00
73651;BME280;61944;52.538;6.108;2022-11-04T20:22:34;101206.13;;;9.35;100.00
73651;BME280;61944;52.538;6.108;2022-11-04T20:25:00;101210.63;;;9.40;100.00
73651;BME280;61944;52.538;6.108;2022-11-04T20:27:25;101208.91;;;9.51;100.00
73651;BME280;61944;52.538;6.108;2022-11-04T20:29:51;101211.50;;;9.60;100.00
73651;BME280;61944;52.538;6.108;2022-11-04T20:32:16;101215.56;;;9.63;100.00
73651;BME280;61944;52.538;6.108;2022-11-04T20:34:42;101219.59;;;9.65;100.00
73651;BME280;61944;52.538;6.108;2022-11-04T20:37:07;101219.59;;;9.65;100.00
73651;BME280;61944;52.538;6.108;2022-11-04T20:39:33;101223.59;;;9.64;100.00
73651;BME280;61944;52.538;6.108;2022-11-04T20:41:59;101221.97;;;9.63;100.00
73651;BME280;61944;52.538;6.108;2022-11-04T20:44:24;101226.94;;;9.54;100.00
73651;BME280;61944;52.538;6.108;2022-11-04T20:46:49;101226.88;;;9.34;100.00
73651;BME280;61944;52.538;6.108;2022-11-04T20:49:15;101223.34;;;9.53;100.00
73651;BME280;61944;52.538;6.108;2022-11-04T20:51:41;101239.38;;;9.56;100.00
73651;BME280;61944;52.538;6.108;2022-11-04T20:54:09;101246.16;;;9.55;100.00
73651;BME280;61944;52.538;6.108;2022-11-04T20:56:36;101240.09;;;9.38;100.00
73651;BME280;61944;52.538;6.108;2022-11-04T20:59:02;101248.75;;;9.48;100.00